createdAt,value
2023-02-16T00:01:24.332Z,143.30
2023-02-16T00:03:54.747Z,143.50
2023-02-16T00:06:24.897Z,149.80
2023-02-16T00:08:56.225Z,143.90
2023-02-16T00:11:54.857Z,152.30
2023-02-16T00:14:29.078Z,150.70
2023-02-16T00:17:00.099Z,152.80
2023-02-16T00:19:39.475Z,146.00
2023-02-16T00:22:17.610Z,151.10
2023-02-16T00:24:45.937Z,158.40
2023-02-16T00:27:24.811Z,152.10
2023-02-16T00:29:53.548Z,136.70
2023-02-16T00:32:21.954Z,137.90
2023-02-16T00:34:50.547Z,149.80
2023-02-16T00:37:19.223Z,148.50
2023-02-16T00:39:48.301Z,137.50
2023-02-16T00:42:19.622Z,133.50
2023-02-16T00:44:55.114Z,133.00
2023-02-16T00:47:50.674Z,133.90
2023-02-16T00:50:24.562Z,130.60
2023-02-16T00:52:57.219Z,125.60
2023-02-16T00:55:29.726Z,134.90
2023-02-16T00:58:15.021Z,143.40
2023-02-16T01:00:56.475Z,142.60
2023-02-16T01:03:27.408Z,137.20
2023-02-16T01:06:17.672Z,119.30
2023-02-16T01:09:07.176Z,124.50
2023-02-16T01:11:39.430Z,130.00
2023-02-16T01:14:13.722Z,119.60
2023-02-16T01:16:42.987Z,118.80
2023-02-16T01:19:14.316Z,119.50
2023-02-16T01:21:45.481Z,118.30
2023-02-16T01:24:14.156Z,120.20
2023-02-16T01:26:47.771Z,114.30
2023-02-16T01:29:20.033Z,121.60
2023-02-16T01:31:51.432Z,110.60
2023-02-16T01:34:28.477Z,109.20
2023-02-16T01:36:59.728Z,104.80
2023-02-16T01:39:28.130Z,109.20
2023-02-16T01:42:08.805Z,110.70
2023-02-16T01:44:46.700Z,112.60
2023-02-16T01:48:01.004Z,110.80
2023-02-16T01:50:56.927Z,118.80
2023-02-16T01:53:43.147Z,107.00
2023-02-16T01:56:38.749Z,117.90
2023-02-16T01:59:31.444Z,111.80
2023-02-16T02:02:12.175Z,107.40
2023-02-16T02:05:13.739Z,109.00
2023-02-16T02:07:45.653Z,113.70
2023-02-16T02:10:46.508Z,113.80
2023-02-16T02:13:47.366Z,119.30
2023-02-16T02:16:21.778Z,109.20
2023-02-16T02:18:50.918Z,120.20
2023-02-16T02:22:14.348Z,114.00
2023-02-16T02:25:07.283Z,111.20
2023-02-16T02:27:49.233Z,102.20
2023-02-16T02:30:32.066Z,99.20
2023-02-16T02:33:13.045Z,91.50
2023-02-16T02:36:10.320Z,88.60
2023-02-16T02:39:14.902Z,92.90
2023-02-16T02:42:13.978Z,92.10
2023-02-16T02:44:53.346Z,90.70
2023-02-16T02:47:21.928Z,89.60
2023-02-16T02:49:55.046Z,94.10
2023-02-16T02:52:23.683Z,89.30
2023-02-16T02:55:10.913Z,91.20
2023-02-16T02:58:00.016Z,99.70
2023-02-16T03:00:48.135Z,93.10
2023-02-16T03:03:38.167Z,88.20
2023-02-16T03:06:35.102Z,98.60
2023-02-16T03:09:11.648Z,91.40
2023-02-16T03:11:59.209Z,89.90
2023-02-16T03:14:35.266Z,89.70
2023-02-16T03:17:32.964Z,86.10
2023-02-16T03:20:24.942Z,90.90
2023-02-16T03:23:12.727Z,91.20
2023-02-16T03:26:00.137Z,88.10
2023-02-16T03:28:50.113Z,92.50
2023-02-16T03:31:28.596Z,93.60
2023-02-16T03:33:57.270Z,92.40
2023-02-16T03:36:29.119Z,88.50
2023-02-16T03:38:58.649Z,88.80
2023-02-16T03:41:33.116Z,95.70
2023-02-16T03:44:01.438Z,84.10
2023-02-16T03:46:30.767Z,88.60
2023-02-16T03:48:59.475Z,90.60
2023-02-16T03:51:27.804Z,82.40
2023-02-16T03:53:56.174Z,87.90
2023-02-16T03:56:24.473Z,86.90
2023-02-16T03:58:53.107Z,81.70
2023-02-16T04:01:21.481Z,82.20
2023-02-16T04:03:49.874Z,88.00
2023-02-16T04:06:18.317Z,79.40
2023-02-16T04:08:46.889Z,84.60
2023-02-16T04:11:35.490Z,79.20
2023-02-16T04:14:03.850Z,82.80
2023-02-16T04:16:32.260Z,78.90
2023-02-16T04:19:00.651Z,74.70
2023-02-16T04:21:29.172Z,80.00
2023-02-16T04:23:57.470Z,87.70
2023-02-16T04:26:26.272Z,76.20
2023-02-16T04:28:54.649Z,72.40
2023-02-16T04:31:23.209Z,73.40
2023-02-16T04:33:51.791Z,81.80
2023-02-16T04:36:20.315Z,76.00
2023-02-16T04:38:48.636Z,83.10
2023-02-16T04:41:17.035Z,78.30
2023-02-16T04:43:45.366Z,76.20
2023-02-16T04:46:13.651Z,73.50
2023-02-16T04:48:42.023Z,81.90
2023-02-16T04:51:10.398Z,69.70
2023-02-16T04:53:38.800Z,72.10
2023-02-16T04:56:11.295Z,71.70
2023-02-16T04:58:39.818Z,81.70
2023-02-16T05:01:09.207Z,72.30
2023-02-16T05:03:37.583Z,74.30
2023-02-16T05:06:06.036Z,77.40
2023-02-16T05:08:34.345Z,79.30
2023-02-16T05:14:45.140Z,78.50
2023-02-16T05:17:18.920Z,78.60
2023-02-16T05:19:52.525Z,73.40
2023-02-16T05:22:24.765Z,73.60
2023-02-16T05:24:53.131Z,81.40
2023-02-16T05:27:29.745Z,70.60
2023-02-16T05:29:58.867Z,79.30
2023-02-16T05:32:27.355Z,71.40
2023-02-16T05:34:55.674Z,68.70
2023-02-16T05:37:24.291Z,70.30
2023-02-16T05:39:53.064Z,73.10
2023-02-16T05:42:21.447Z,69.70
2023-02-16T05:44:49.962Z,75.00
2023-02-16T05:47:18.219Z,83.90
2023-02-16T05:49:46.699Z,79.10
2023-02-16T05:52:15.208Z,69.60
2023-02-16T05:54:43.552Z,81.80
2023-02-16T05:57:11.990Z,68.90
2023-02-16T05:59:40.443Z,77.60
2023-02-16T06:02:10.086Z,83.70
2023-02-16T06:04:38.461Z,85.50
2023-02-16T06:07:06.917Z,73.00
2023-02-16T06:09:36.892Z,81.10
2023-02-16T06:12:05.982Z,80.50
2023-02-16T06:14:34.722Z,82.80
2023-02-16T06:17:03.837Z,83.60
2023-02-16T06:19:34.660Z,85.80
2023-02-16T06:22:03.105Z,97.80
2023-02-16T06:24:31.492Z,89.40
2023-02-16T06:26:59.871Z,92.50
2023-02-16T06:29:28.467Z,89.10
2023-02-16T06:31:56.992Z,79.40
2023-02-16T06:34:26.074Z,94.50
2023-02-16T06:36:54.767Z,92.90
2023-02-16T06:39:23.227Z,105.10
2023-02-16T06:41:51.583Z,110.00
2023-02-16T06:44:20.403Z,94.20
2023-02-16T06:46:49.348Z,92.20
2023-02-16T06:49:20.244Z,96.00
2023-02-16T06:51:50.261Z,87.60
2023-02-16T06:54:18.935Z,101.80
2023-02-16T06:56:47.375Z,95.00
2023-02-16T06:59:15.916Z,96.80
2023-02-16T07:01:45.477Z,93.00
2023-02-16T07:04:14.265Z,95.90
2023-02-16T07:06:42.962Z,107.00
2023-02-16T07:09:12.799Z,212.40
2023-02-16T07:11:41.602Z,153.20
2023-02-16T07:14:10.688Z,126.90
2023-02-16T07:16:39.212Z,152.20
2023-02-16T07:19:08.829Z,113.30
2023-02-16T07:21:37.480Z,143.10
2023-02-16T07:24:06.205Z,465.30
2023-02-16T07:26:34.668Z,239.30
2023-02-16T07:29:03.108Z,128.90
2023-02-16T07:31:31.589Z,334.60
2023-02-16T07:34:00.145Z,307.80
2023-02-16T07:36:28.712Z,258.70
2023-02-16T07:38:57.160Z,115.70
2023-02-16T07:41:25.759Z,115.60
2023-02-16T07:43:55.268Z,124.40
2023-02-16T07:46:23.776Z,124.80
2023-02-16T07:48:52.198Z,104.90
2023-02-16T07:51:25.783Z,102.30
2023-02-16T07:53:55.148Z,110.00
2023-02-16T07:56:28.392Z,109.70
2023-02-16T07:58:59.002Z,110.20
2023-02-16T08:01:30.139Z,119.70
2023-02-16T08:03:58.603Z,110.90
2023-02-16T08:06:27.162Z,108.80
2023-02-16T08:08:55.630Z,97.00
2023-02-16T08:11:25.407Z,100.20
2023-02-16T08:13:53.937Z,100.20
2023-02-16T08:16:25.607Z,90.60
2023-02-16T08:18:57.185Z,98.10
2023-02-16T08:21:29.976Z,86.20
2023-02-16T08:24:08.154Z,90.90
2023-02-16T08:26:43.345Z,93.80
2023-02-16T08:31:42.116Z,91.70
2023-02-16T08:34:10.737Z,90.80
2023-02-16T08:36:41.009Z,93.20
2023-02-16T08:39:16.344Z,87.10
2023-02-16T08:41:47.308Z,85.60
2023-02-16T08:44:18.162Z,68.60
2023-02-16T08:46:55.158Z,77.40
2023-02-16T08:49:24.186Z,71.80
2023-02-16T08:51:56.384Z,80.60
2023-02-16T08:54:30.752Z,73.20
2023-02-16T08:57:01.807Z,71.70
2023-02-16T08:59:31.135Z,72.60
2023-02-16T09:02:00.477Z,63.90
2023-02-16T09:04:29.457Z,59.50
2023-02-16T09:06:59.921Z,61.70
2023-02-16T09:09:28.915Z,64.30
2023-02-16T09:11:58.260Z,65.10
2023-02-16T09:14:28.222Z,67.60
2023-02-16T09:17:00.286Z,69.00
2023-02-16T09:19:28.826Z,65.70
2023-02-16T09:21:58.181Z,61.60
2023-02-16T09:24:27.199Z,143.40
2023-02-16T09:26:55.968Z,84.20
2023-02-16T09:29:27.633Z,65.30
2023-02-16T09:31:56.454Z,59.80
2023-02-16T09:34:26.867Z,56.10
2023-02-16T09:36:56.673Z,164.60
2023-02-16T09:39:25.165Z,91.20
2023-02-16T09:42:12.361Z,63.70
2023-02-16T09:44:52.347Z,99.10
2023-02-16T09:47:29.566Z,67.20
2023-02-16T09:50:04.076Z,57.90
2023-02-16T09:52:43.705Z,48.00
2023-02-16T09:55:16.380Z,52.20
2023-02-16T09:57:55.628Z,49.20
2023-02-16T10:00:33.394Z,50.00
2023-02-16T10:03:24.108Z,55.60
2023-02-16T10:06:05.838Z,50.20
2023-02-16T10:08:42.493Z,48.20
2023-02-16T10:11:35.728Z,49.10
2023-02-16T10:14:31.872Z,49.80
2023-02-16T10:17:37.976Z,53.10
2023-02-16T10:20:20.423Z,55.50
2023-02-16T10:23:04.860Z,51.90
2023-02-16T10:25:46.671Z,52.60
2023-02-16T10:28:18.384Z,46.90
2023-02-16T10:30:51.727Z,45.90
2023-02-16T10:33:42.132Z,47.90
2023-02-16T10:36:40.221Z,43.10
2023-02-16T10:39:11.433Z,42.70
2023-02-16T10:41:50.167Z,54.20
2023-02-16T10:44:29.477Z,53.90
2023-02-16T10:47:03.542Z,51.80
2023-02-16T10:49:37.075Z,51.90
2023-02-16T10:52:09.458Z,51.90
2023-02-16T10:54:38.641Z,59.40
2023-02-16T10:57:24.439Z,52.80
2023-02-16T10:59:55.490Z,52.60
2023-02-16T11:02:42.168Z,53.50
2023-02-16T11:05:42.796Z,61.00
2023-02-16T11:08:13.306Z,49.70
2023-02-16T11:10:50.617Z,50.30
2023-02-16T11:13:37.635Z,49.70
2023-02-16T11:16:14.116Z,43.40
2023-02-16T11:19:07.985Z,55.90
2023-02-16T11:21:55.421Z,57.10
2023-02-16T11:24:35.078Z,59.30
2023-02-16T11:27:08.339Z,60.40
2023-02-16T11:29:37.246Z,52.40
2023-02-16T11:32:11.090Z,52.30
2023-02-16T11:34:51.599Z,56.90
2023-02-16T11:37:34.084Z,51.00
2023-02-16T11:40:09.445Z,52.50
2023-02-16T11:42:47.349Z,44.00
2023-02-16T11:45:31.534Z,45.60
2023-02-16T11:48:08.315Z,42.40
2023-02-16T11:50:39.902Z,46.40
2023-02-16T11:53:11.608Z,44.10
2023-02-16T11:55:45.765Z,45.80
2023-02-16T11:58:22.643Z,48.40
2023-02-16T12:01:19.291Z,46.70
2023-02-16T12:04:12.096Z,45.80
2023-02-16T12:06:49.908Z,53.40
2023-02-16T12:09:50.052Z,43.00
2023-02-16T12:12:24.619Z,41.40
2023-02-16T12:15:31.755Z,40.00
2023-02-16T12:18:21.687Z,39.10
2023-02-16T12:21:10.567Z,43.30
2023-02-16T12:23:59.684Z,41.60
2023-02-16T12:26:54.003Z,38.40
2023-02-16T12:29:34.966Z,38.50
2023-02-16T12:32:07.591Z,40.20
2023-02-16T12:34:58.614Z,40.00
2023-02-16T12:37:42.855Z,38.10
2023-02-16T12:40:52.205Z,38.50
2023-02-16T12:43:23.538Z,46.10
2023-02-16T12:45:55.759Z,37.40
2023-02-16T12:48:27.555Z,45.90
2023-02-16T12:50:58.333Z,41.90
2023-02-16T12:53:49.952Z,41.20
2023-02-16T12:56:34.996Z,38.30
2023-02-16T12:59:30.993Z,32.40
2023-02-16T13:02:01.734Z,36.80
2023-02-16T13:05:03.458Z,31.60
2023-02-16T13:07:41.907Z,31.50
2023-02-16T13:10:20.733Z,35.30
2023-02-16T13:12:58.332Z,33.70
2023-02-16T13:15:30.892Z,33.50
2023-02-16T13:18:07.464Z,28.40
2023-02-16T13:20:41.714Z,30.00
2023-02-16T13:23:22.676Z,29.90
2023-02-16T13:25:56.962Z,29.70
2023-02-16T13:28:47.321Z,30.40
2023-02-16T13:31:22.703Z,27.70
2023-02-16T13:34:08.393Z,33.40
2023-02-16T13:37:09.359Z,31.10
2023-02-16T13:39:56.320Z,29.10
2023-02-16T13:42:31.463Z,26.60
2023-02-16T13:45:12.785Z,30.70
2023-02-16T13:47:42.177Z,30.10
2023-02-16T13:50:33.243Z,29.70
2023-02-16T13:53:22.649Z,30.10
2023-02-16T13:56:35.328Z,29.80
2023-02-16T13:59:18.855Z,29.80
2023-02-16T14:01:50.771Z,29.80
2023-02-16T14:04:22.323Z,30.00
2023-02-16T14:07:15.141Z,26.80
2023-02-16T14:09:49.530Z,30.70
2023-02-16T14:12:32.062Z,31.30
2023-02-16T14:15:18.495Z,30.50
2023-02-16T14:17:47.555Z,35.70
2023-02-16T14:20:16.967Z,34.50
2023-02-16T14:22:57.579Z,42.80
2023-02-16T14:25:36.820Z,27.70
2023-02-16T14:28:48.293Z,34.20
2023-02-16T14:31:23.195Z,33.70
2023-02-16T14:34:27.513Z,29.40
2023-02-16T14:37:17.738Z,29.30
2023-02-16T14:40:07.098Z,34.20
2023-02-16T14:42:36.828Z,33.10
2023-02-16T14:45:23.764Z,32.10
2023-02-16T14:48:13.634Z,33.10
2023-02-16T14:50:47.623Z,30.80
2023-02-16T14:53:40.833Z,34.90
2023-02-16T14:56:24.198Z,32.00
2023-02-16T14:59:14.756Z,26.80
2023-02-16T15:01:45.963Z,35.80
2023-02-16T15:04:38.439Z,34.10
2023-02-16T15:07:07.873Z,36.80
2023-02-16T15:09:36.274Z,34.50
2023-02-16T15:12:22.217Z,35.40
2023-02-16T15:15:03.080Z,38.20
2023-02-16T15:17:39.513Z,41.20
2023-02-16T15:20:21.973Z,36.70
2023-02-16T15:23:02.539Z,37.00
2023-02-16T15:25:34.041Z,36.50
2023-02-16T15:28:06.976Z,39.20
2023-02-16T15:30:37.824Z,37.50
2023-02-16T15:33:14.308Z,36.40
2023-02-16T15:35:47.060Z,39.00
2023-02-16T15:38:33.756Z,44.60
2023-02-16T15:46:21.951Z,63.10
2023-02-16T15:48:51.299Z,73.50
2023-02-16T15:51:25.347Z,85.90
2023-02-16T15:54:25.111Z,58.30
2023-02-16T15:57:00.194Z,48.00
2023-02-16T15:59:35.809Z,51.10
2023-02-16T16:02:12.100Z,50.30
2023-02-16T16:04:44.723Z,55.70
2023-02-16T16:07:22.128Z,58.70
2023-02-16T16:09:51.934Z,61.10
2023-02-16T16:12:21.059Z,63.90
2023-02-16T16:14:58.853Z,67.10
2023-02-16T16:17:31.278Z,66.70
2023-02-16T16:20:22.289Z,70.60
2023-02-16T16:23:06.718Z,59.30
2023-02-16T16:25:48.134Z,62.60
2023-02-16T16:28:26.496Z,96.30
2023-02-16T16:31:12.322Z,105.70
2023-02-16T16:33:56.056Z,124.90
2023-02-16T16:36:57.032Z,150.80
2023-02-16T16:39:32.369Z,192.40
2023-02-16T16:42:00.845Z,165.30
2023-02-16T16:44:41.224Z,177.90
2023-02-16T16:47:12.781Z,135.80
2023-02-16T16:49:51.925Z,121.30
2023-02-16T16:52:31.034Z,133.20
2023-02-16T16:54:59.676Z,132.20
2023-02-16T16:57:30.282Z,117.10
2023-02-16T16:59:59.440Z,107.20
2023-02-16T17:02:28.015Z,116.90
2023-02-16T17:04:56.434Z,124.40
2023-02-16T17:07:26.331Z,102.10
2023-02-16T17:09:54.810Z,116.30
2023-02-16T17:12:24.934Z,123.30
2023-02-16T17:14:54.251Z,116.20
2023-02-16T17:17:26.098Z,105.70
2023-02-16T17:19:56.238Z,99.60
2023-02-16T17:22:24.682Z,116.00
2023-02-16T17:24:53.015Z,120.20
2023-02-16T17:27:21.492Z,113.10
2023-02-16T17:29:49.947Z,130.80
2023-02-16T17:32:18.356Z,111.40
2023-02-16T17:34:47.125Z,138.20
2023-02-16T17:37:16.061Z,145.70
2023-02-16T17:39:45.727Z,156.30
2023-02-16T17:42:14.965Z,154.60
2023-02-16T17:44:45.520Z,189.20
2023-02-16T17:47:15.652Z,196.80
2023-02-16T17:49:44.153Z,202.90
2023-02-16T17:52:13.608Z,173.70
2023-02-16T17:54:41.979Z,170.10
2023-02-16T17:57:13.271Z,145.00
2023-02-16T17:59:42.421Z,137.60
2023-02-16T18:02:13.837Z,144.40
2023-02-16T18:04:42.598Z,139.30
2023-02-16T18:07:14.469Z,151.60
2023-02-16T18:09:42.808Z,162.30
2023-02-16T18:12:11.244Z,149.10
2023-02-16T18:14:41.192Z,154.80
2023-02-16T18:17:15.609Z,145.90
2023-02-16T18:19:44.759Z,164.50
2023-02-16T18:22:13.292Z,164.50
2023-02-16T18:24:44.521Z,161.10
2023-02-16T18:27:13.975Z,146.90
2023-02-16T18:29:42.499Z,153.30
2023-02-16T18:32:14.239Z,224.40
2023-02-16T18:34:43.055Z,173.60
2023-02-16T18:37:11.406Z,152.40
2023-02-16T18:39:41.147Z,153.80
2023-02-16T18:42:13.707Z,151.00
2023-02-16T18:44:42.200Z,148.90
2023-02-16T18:47:10.676Z,155.00
2023-02-16T18:49:38.960Z,168.40
2023-02-16T18:52:09.009Z,161.60
2023-02-16T18:54:38.121Z,158.50
2023-02-16T18:57:07.678Z,152.40
2023-02-16T18:59:36.587Z,226.30
2023-02-16T19:02:05.453Z,324.70
2023-02-16T19:04:33.791Z,361.50
2023-02-16T19:07:02.137Z,254.80
2023-02-16T19:09:30.743Z,247.20
2023-02-16T19:11:59.031Z,191.80
2023-02-16T19:14:27.302Z,158.60
2023-02-16T19:16:55.669Z,158.40
2023-02-16T19:19:23.951Z,137.30
2023-02-16T19:21:52.443Z,127.40
2023-02-16T19:24:20.879Z,115.00
2023-02-16T19:26:49.264Z,117.40
2023-02-16T19:29:17.758Z,117.60
2023-02-16T19:31:48.359Z,136.80
2023-02-16T19:34:17.284Z,129.50
2023-02-16T19:36:45.579Z,121.60
2023-02-16T19:39:17.869Z,125.90
2023-02-16T19:41:50.851Z,137.20
2023-02-16T19:44:21.639Z,123.10
2023-02-16T19:46:49.922Z,140.70
2023-02-16T19:49:21.672Z,146.00
2023-02-16T19:51:54.264Z,131.70
2023-02-16T19:54:26.264Z,131.40
2023-02-16T19:56:58.358Z,128.20
2023-02-16T19:59:29.123Z,136.60
2023-02-16T20:02:03.219Z,127.60
2023-02-16T20:04:34.443Z,126.80
2023-02-16T20:07:03.848Z,120.90
2023-02-16T20:09:35.401Z,118.80
2023-02-16T20:12:08.061Z,114.20
2023-02-16T20:14:48.823Z,121.80
2023-02-16T20:17:20.365Z,123.20
2023-02-16T20:19:48.749Z,122.80
2023-02-16T20:22:21.506Z,123.40
2023-02-16T20:24:49.828Z,187.80
2023-02-16T20:27:23.656Z,158.70
2023-02-16T20:29:51.987Z,157.70
2023-02-16T20:32:26.105Z,160.40
2023-02-16T20:34:54.644Z,173.70
2023-02-16T20:37:23.343Z,127.20
2023-02-16T20:39:54.838Z,120.60
2023-02-16T20:42:25.272Z,109.40
2023-02-16T20:44:53.614Z,108.90
2023-02-16T20:47:24.793Z,114.40
2023-02-16T20:49:55.813Z,110.10
2023-02-16T20:52:24.104Z,100.70
2023-02-16T20:54:52.469Z,103.80
2023-02-16T20:57:28.651Z,111.50
2023-02-16T20:59:58.799Z,124.50
2023-02-16T21:02:27.259Z,111.40
2023-02-16T21:04:56.031Z,109.90
2023-02-16T21:07:24.470Z,106.90
2023-02-16T21:09:52.883Z,111.90
2023-02-16T21:12:21.360Z,108.30
2023-02-16T21:14:58.656Z,105.70
2023-02-16T21:17:29.593Z,93.40
2023-02-16T21:19:58.035Z,100.70
2023-02-16T21:22:27.992Z,95.80
2023-02-16T21:24:56.522Z,105.60
2023-02-16T21:27:26.607Z,104.90
2023-02-16T21:29:55.064Z,125.30
2023-02-16T21:32:23.417Z,134.20
2023-02-16T21:34:51.738Z,404.10
2023-02-16T21:37:20.190Z,394.60
2023-02-16T21:40:07.448Z,293.10
2023-02-16T21:42:35.881Z,186.60
2023-02-16T21:45:13.628Z,134.30
2023-02-16T21:48:03.240Z,222.50
2023-02-16T21:50:36.155Z,205.70
2023-02-16T21:53:05.151Z,106.30
2023-02-16T21:55:54.646Z,117.80
2023-02-16T21:58:27.033Z,133.10
2023-02-16T22:00:56.675Z,103.50
2023-02-16T22:03:26.038Z,107.70
2023-02-16T22:05:54.422Z,105.70
2023-02-16T22:08:26.974Z,87.50
2023-02-16T22:13:33.295Z,108.70
2023-02-16T22:16:01.677Z,113.00
2023-02-16T22:18:29.923Z,101.10
2023-02-16T22:21:04.891Z,88.30
2023-02-16T22:23:33.416Z,87.30
2023-02-16T22:26:02.976Z,86.20
2023-02-16T22:28:44.526Z,90.20
2023-02-16T22:31:12.957Z,96.20
2023-02-16T22:33:41.242Z,95.60
2023-02-16T22:36:14.098Z,99.00
2023-02-16T22:38:43.693Z,147.30
2023-02-16T22:41:12.793Z,125.30
2023-02-16T22:43:41.415Z,126.50
2023-02-16T22:46:17.325Z,129.10
2023-02-16T22:48:45.872Z,137.50
2023-02-16T22:51:16.492Z,126.20
2023-02-16T22:53:45.072Z,152.40
2023-02-16T22:56:15.871Z,140.50
2023-02-16T22:58:44.979Z,140.50
2023-02-16T23:01:17.023Z,122.70
2023-02-16T23:03:53.366Z,122.70
2023-02-16T23:06:24.955Z,99.60
2023-02-16T23:08:59.593Z,109.00
2023-02-16T23:11:28.695Z,112.10
2023-02-16T23:13:57.386Z,103.50
2023-02-16T23:16:27.586Z,90.50
2023-02-16T23:18:58.021Z,86.80
2023-02-16T23:21:38.292Z,86.50
2023-02-16T23:24:07.078Z,97.30
2023-02-16T23:26:35.472Z,86.40
2023-02-16T23:29:03.867Z,107.80
2023-02-16T23:31:34.397Z,114.20
2023-02-16T23:34:04.035Z,114.30
2023-02-16T23:36:34.187Z,103.50
2023-02-16T23:39:06.039Z,93.80
2023-02-16T23:41:34.815Z,87.10
2023-02-16T23:44:04.112Z,106.90
2023-02-16T23:46:32.536Z,122.60
2023-02-16T23:49:00.952Z,121.10
2023-02-16T23:51:29.389Z,114.40
2023-02-16T23:53:57.780Z,100.80
2023-02-16T23:56:28.160Z,104.20
2023-02-16T23:59:03.169Z,97.20
